createdAt,value
2023-04-27T00:00:11.311Z,10.93
2023-04-27T00:03:06.005Z,12.02
2023-04-27T00:05:37.130Z,11.68
2023-04-27T00:08:07.057Z,11.98
2023-04-27T00:10:36.011Z,12.02
2023-04-27T00:13:05.084Z,12.82
2023-04-27T00:15:33.767Z,12.43
2023-04-27T00:18:04.280Z,11.57
2023-04-27T00:20:33.943Z,11.10
2023-04-27T00:23:02.989Z,11.90
2023-04-27T00:25:31.657Z,11.65
2023-04-27T00:28:00.683Z,11.07
2023-04-27T00:30:29.657Z,11.05
2023-04-27T00:32:58.641Z,11.23
2023-04-27T00:35:28.770Z,11.13
2023-04-27T00:37:57.728Z,10.48
2023-04-27T00:40:26.416Z,11.18
2023-04-27T00:42:55.561Z,10.32
2023-04-27T00:45:24.422Z,11.30
2023-04-27T00:47:53.699Z,10.50
2023-04-27T00:50:31.045Z,11.65
2023-04-27T00:53:00.746Z,12.25
2023-04-27T00:55:29.460Z,11.75
2023-04-27T00:57:58.639Z,10.32
2023-04-27T01:00:27.608Z,11.27
2023-04-27T01:02:57.415Z,12.27
2023-04-27T01:05:27.427Z,12.35
2023-04-27T01:07:57.802Z,14.15
2023-04-27T01:10:28.532Z,13.88
2023-04-27T01:12:57.626Z,14.82
2023-04-27T01:15:26.928Z,14.07
2023-04-27T01:18:00.173Z,14.38
2023-04-27T01:20:32.033Z,14.13
2023-04-27T01:23:02.348Z,13.38
2023-04-27T01:25:32.384Z,14.75
2023-04-27T01:28:04.477Z,13.88
2023-04-27T01:30:33.193Z,13.43
2023-04-27T01:33:02.158Z,14.27
2023-04-27T01:35:31.730Z,12.90
2023-04-27T01:38:02.773Z,13.25
2023-04-27T01:40:32.821Z,13.25
2023-04-27T01:43:02.016Z,12.77
2023-04-27T01:45:31.670Z,13.88
2023-04-27T01:48:02.162Z,13.27
2023-04-27T01:50:31.001Z,11.80
2023-04-27T01:52:59.924Z,13.52
2023-04-27T01:55:31.962Z,12.85
2023-04-27T01:58:01.021Z,13.13
2023-04-27T02:00:30.678Z,12.23
2023-04-27T02:03:01.417Z,12.13
2023-04-27T02:05:30.510Z,11.55
2023-04-27T02:07:59.586Z,11.77
2023-04-27T02:10:28.415Z,11.50
2023-04-27T02:13:00.545Z,11.27
2023-04-27T02:15:29.698Z,9.98
2023-04-27T02:17:58.750Z,10.45
2023-04-27T02:20:27.562Z,10.48
2023-04-27T02:22:56.560Z,10.30
2023-04-27T02:25:28.226Z,10.10
2023-04-27T02:27:57.723Z,10.13
2023-04-27T02:30:28.641Z,10.15
2023-04-27T02:33:00.914Z,9.98
2023-04-27T02:35:29.795Z,9.68
2023-04-27T02:38:01.980Z,9.90
2023-04-27T02:40:30.749Z,10.00
2023-04-27T02:42:59.672Z,9.55
2023-04-27T02:45:29.757Z,10.07
2023-04-27T02:48:00.476Z,9.07
2023-04-27T02:50:29.269Z,9.45
2023-04-27T02:52:58.236Z,8.70
2023-04-27T02:55:27.677Z,8.93
2023-04-27T02:57:56.864Z,8.60
2023-04-27T03:00:26.195Z,9.93
2023-04-27T03:02:57.308Z,9.25
2023-04-27T03:05:28.402Z,9.30
2023-04-27T03:07:57.330Z,9.45
2023-04-27T03:10:26.823Z,9.48
2023-04-27T03:12:55.853Z,8.93
2023-04-27T03:15:24.737Z,9.68
2023-04-27T03:17:55.958Z,8.98
2023-04-27T03:20:24.709Z,9.65
2023-04-27T03:22:55.950Z,8.82
2023-04-27T03:25:24.926Z,8.18
2023-04-27T03:27:53.873Z,9.32
2023-04-27T03:30:24.890Z,8.63
2023-04-27T03:32:54.671Z,8.98
2023-04-27T03:35:24.735Z,8.68
2023-04-27T03:37:53.603Z,8.63
2023-04-27T03:40:22.976Z,8.73
2023-04-27T03:42:52.018Z,9.63
2023-04-27T03:45:22.388Z,9.18
2023-04-27T03:47:52.174Z,9.07
2023-04-27T03:50:21.126Z,9.30
2023-04-27T03:52:52.893Z,8.35
2023-04-27T03:55:22.046Z,9.35
2023-04-27T03:57:51.370Z,9.02
2023-04-27T04:00:20.344Z,9.27
2023-04-27T04:02:49.764Z,9.27
2023-04-27T04:05:19.060Z,9.45
2023-04-27T04:07:48.048Z,9.50
2023-04-27T04:10:18.554Z,10.07
2023-04-27T04:12:49.604Z,9.85
2023-04-27T04:15:19.300Z,9.40
2023-04-27T04:17:49.401Z,9.52
2023-04-27T04:20:19.444Z,10.02
2023-04-27T04:22:48.564Z,9.93
2023-04-27T04:25:18.856Z,9.93
2023-04-27T04:27:48.300Z,9.93
2023-04-27T04:30:17.802Z,10.10
2023-04-27T04:32:46.837Z,8.98
2023-04-27T04:35:17.797Z,10.98
2023-04-27T04:37:47.107Z,9.07
2023-04-27T04:40:16.720Z,9.90
2023-04-27T04:42:47.228Z,10.85
2023-04-27T04:45:15.881Z,9.43
2023-04-27T04:47:44.979Z,9.93
2023-04-27T04:50:14.215Z,8.35
2023-04-27T04:52:43.296Z,9.68
2023-04-27T04:55:12.379Z,9.63
2023-04-27T04:57:41.349Z,9.35
2023-04-27T05:00:13.736Z,8.82
2023-04-27T05:02:43.272Z,10.10
2023-04-27T05:05:12.089Z,9.43
2023-04-27T05:07:41.819Z,9.95
2023-04-27T05:10:11.053Z,8.88
2023-04-27T05:12:39.993Z,9.00
2023-04-27T05:15:11.558Z,9.27
2023-04-27T05:17:40.489Z,9.43
2023-04-27T05:20:10.697Z,9.20
2023-04-27T05:22:39.622Z,9.70
2023-04-27T05:25:10.065Z,9.55
2023-04-27T05:27:39.012Z,7.75
2023-04-27T05:30:09.686Z,8.75
2023-04-27T05:32:40.039Z,8.07
2023-04-27T05:35:09.913Z,8.68
2023-04-27T05:37:38.872Z,8.77
2023-04-27T05:40:10.339Z,8.85
2023-04-27T05:42:39.302Z,8.30
2023-04-27T05:45:09.694Z,8.93
2023-04-27T05:47:40.114Z,9.68
2023-04-27T05:50:09.909Z,9.57
2023-04-27T05:52:39.394Z,9.05
2023-04-27T05:55:09.215Z,8.93
2023-04-27T05:57:38.197Z,9.38
2023-04-27T06:00:11.241Z,8.82
2023-04-27T06:02:44.379Z,8.43
2023-04-27T06:05:13.247Z,8.60
2023-04-27T06:07:43.829Z,9.07
2023-04-27T06:10:12.994Z,8.77
2023-04-27T06:12:43.032Z,8.43
2023-04-27T06:15:13.138Z,8.70
2023-04-27T06:17:44.507Z,8.48
2023-04-27T06:20:13.640Z,9.10
2023-04-27T06:22:42.620Z,9.38
2023-04-27T06:25:11.774Z,9.60
2023-04-27T06:27:40.866Z,9.07
2023-04-27T06:30:10.956Z,9.00
2023-04-27T06:32:39.881Z,9.27
2023-04-27T06:35:10.994Z,9.23
2023-04-27T06:37:40.207Z,8.98
2023-04-27T06:40:09.906Z,9.30
2023-04-27T06:42:38.926Z,10.43
2023-04-27T06:45:08.994Z,9.15
2023-04-27T06:47:37.959Z,9.13
2023-04-27T06:50:07.701Z,8.45
2023-04-27T06:52:37.970Z,9.30
2023-04-27T06:55:08.059Z,9.55
2023-04-27T06:57:37.129Z,9.20
2023-04-27T07:00:07.133Z,8.95
2023-04-27T07:02:36.552Z,8.60
2023-04-27T07:05:05.834Z,8.85
2023-04-27T07:07:34.901Z,8.85
2023-04-27T07:10:05.920Z,9.45
2023-04-27T07:12:35.186Z,9.15
2023-04-27T07:15:04.530Z,8.32
2023-04-27T07:17:34.005Z,9.18
2023-04-27T07:20:04.012Z,9.35
2023-04-27T07:22:33.107Z,8.95
2023-04-27T07:25:01.844Z,9.02
2023-04-27T07:27:33.106Z,8.48
2023-04-27T07:30:01.792Z,8.60
2023-04-27T07:32:31.211Z,8.65
2023-04-27T07:35:00.040Z,8.60
2023-04-27T07:37:29.082Z,7.20
2023-04-27T07:39:57.781Z,7.22
2023-04-27T07:42:26.725Z,7.45
2023-04-27T07:44:58.281Z,8.15
2023-04-27T07:47:27.324Z,8.23
2023-04-27T07:49:56.079Z,7.32
2023-04-27T07:52:25.057Z,7.47
2023-04-27T07:54:53.972Z,7.47
2023-04-27T07:57:22.957Z,7.05
2023-04-27T07:59:51.704Z,7.30
2023-04-27T08:02:22.376Z,6.80
2023-04-27T08:04:51.912Z,7.03
2023-04-27T08:07:21.679Z,7.80
2023-04-27T08:09:53.343Z,7.80
2023-04-27T08:12:22.328Z,8.50
2023-04-27T08:14:51.153Z,7.88
2023-04-27T08:17:22.048Z,8.05
2023-04-27T08:19:50.744Z,7.50
2023-04-27T08:22:19.852Z,7.82
2023-04-27T08:24:48.436Z,6.80
2023-04-27T08:27:17.455Z,6.88
2023-04-27T08:29:49.945Z,6.35
2023-04-27T08:32:19.212Z,5.97
2023-04-27T08:34:49.249Z,6.53
2023-04-27T08:37:18.633Z,7.32
2023-04-27T08:39:49.203Z,6.40
2023-04-27T08:42:18.274Z,6.53
2023-04-27T08:44:47.015Z,6.38
2023-04-27T08:47:16.356Z,5.18
2023-04-27T08:49:45.086Z,4.85
2023-04-27T08:52:17.738Z,5.65
2023-04-27T08:54:46.425Z,5.88
2023-04-27T08:57:16.810Z,4.50
2023-04-27T08:59:45.688Z,4.72
2023-04-27T09:02:22.562Z,4.53
2023-04-27T09:04:52.116Z,4.80
2023-04-27T09:07:22.643Z,4.82
2023-04-27T09:09:51.440Z,4.57
2023-04-27T09:12:22.268Z,4.65
2023-04-27T09:15:03.725Z,4.68
2023-04-27T09:17:34.327Z,4.28
2023-04-27T09:20:10.371Z,4.50
2023-04-27T09:22:48.521Z,4.22
2023-04-27T09:25:29.424Z,4.43
2023-04-27T09:27:59.524Z,4.80
2023-04-27T09:30:30.273Z,4.82
2023-04-27T09:33:02.287Z,5.00
2023-04-27T09:35:33.918Z,4.78
2023-04-27T09:38:04.178Z,4.40
2023-04-27T09:40:33.656Z,4.45
2023-04-27T09:43:03.037Z,4.65
2023-04-27T09:45:34.405Z,4.63
2023-04-27T09:48:05.429Z,4.32
2023-04-27T09:50:38.255Z,4.20
2023-04-27T09:53:11.809Z,4.20
2023-04-27T09:55:45.057Z,3.67
2023-04-27T09:59:02.268Z,3.72
2023-04-27T10:01:42.283Z,3.42
2023-04-27T10:04:31.172Z,3.08
2023-04-27T10:07:03.211Z,2.10
2023-04-27T10:09:41.702Z,1.95
2023-04-27T10:12:20.302Z,1.75
2023-04-27T10:14:53.852Z,1.30
2023-04-27T10:17:30.789Z,1.75
2023-04-27T10:20:01.754Z,1.42
2023-04-27T10:22:41.665Z,2.08
2023-04-27T10:25:23.882Z,2.00
2023-04-27T10:27:55.805Z,1.90
2023-04-27T10:30:27.785Z,1.83
2023-04-27T10:32:58.998Z,2.17
2023-04-27T10:35:35.342Z,1.83
2023-04-27T10:38:08.792Z,1.98
2023-04-27T10:40:39.819Z,2.13
2023-04-27T10:43:14.162Z,2.40
2023-04-27T10:45:44.074Z,2.92
2023-04-27T10:48:15.843Z,3.28
2023-04-27T10:50:46.901Z,3.50
2023-04-27T10:53:16.010Z,4.35
2023-04-27T10:55:46.954Z,3.97
2023-04-27T10:58:16.154Z,3.97
2023-04-27T11:00:45.204Z,4.70
2023-04-27T11:03:18.299Z,5.65
2023-04-27T11:05:49.244Z,4.93
2023-04-27T11:08:21.084Z,5.55
2023-04-27T11:10:53.388Z,4.97
2023-04-27T11:13:25.189Z,4.90
2023-04-27T11:15:55.793Z,4.80
2023-04-27T11:18:27.519Z,4.30
2023-04-27T11:21:09.278Z,3.00
2023-04-27T11:23:39.683Z,2.10
2023-04-27T11:26:14.756Z,3.30
2023-04-27T11:28:44.507Z,2.75
2023-04-27T11:31:13.665Z,3.40
2023-04-27T11:33:50.124Z,3.97
2023-04-27T11:36:19.581Z,3.80
2023-04-27T11:38:48.999Z,3.45
2023-04-27T11:41:19.612Z,3.67
2023-04-27T11:43:49.597Z,3.92
2023-04-27T11:46:22.448Z,3.30
2023-04-27T11:48:51.606Z,3.92
2023-04-27T11:51:20.486Z,3.85
2023-04-27T11:53:51.260Z,3.55
2023-04-27T11:56:21.339Z,3.47
2023-04-27T11:58:50.463Z,3.40
2023-04-27T12:01:27.733Z,3.15
2023-04-27T12:04:02.358Z,3.00
2023-04-27T12:06:33.177Z,2.72
2023-04-27T12:09:04.145Z,5.57
2023-04-27T12:11:34.476Z,6.38
2023-04-27T12:14:04.103Z,5.55
2023-04-27T12:16:32.880Z,3.22
2023-04-27T12:19:02.045Z,3.00
2023-04-27T12:21:32.247Z,3.20
2023-04-27T12:24:01.192Z,2.78
2023-04-27T12:26:30.682Z,2.33
2023-04-27T12:29:01.328Z,3.38
2023-04-27T12:31:31.289Z,2.50
2023-04-27T12:34:00.404Z,2.58
2023-04-27T12:36:29.573Z,2.55
2023-04-27T12:39:02.554Z,2.50
2023-04-27T12:41:31.252Z,2.72
2023-04-27T12:44:01.619Z,2.95
2023-04-27T12:46:30.392Z,2.53
2023-04-27T12:48:59.576Z,2.30
2023-04-27T12:51:29.860Z,2.50
2023-04-27T12:54:00.815Z,2.30
2023-04-27T12:56:30.059Z,2.03
2023-04-27T12:58:59.279Z,2.40
2023-04-27T13:01:31.005Z,2.65
2023-04-27T13:04:03.502Z,2.88
2023-04-27T13:06:33.252Z,2.92
2023-04-27T13:09:02.632Z,2.78
2023-04-27T13:11:31.340Z,2.60
2023-04-27T13:14:02.137Z,2.55
2023-04-27T13:16:32.591Z,2.30
2023-04-27T13:19:02.042Z,2.65
2023-04-27T13:21:30.886Z,2.60
2023-04-27T13:24:00.468Z,2.53
2023-04-27T13:26:29.442Z,2.83
2023-04-27T13:28:58.544Z,2.78
2023-04-27T13:31:27.378Z,2.55
2023-04-27T13:33:57.709Z,2.50
2023-04-27T13:36:26.978Z,2.55
2023-04-27T13:38:56.285Z,2.78
2023-04-27T13:41:25.084Z,2.50
2023-04-27T13:43:54.128Z,1.85
2023-04-27T13:46:22.832Z,2.88
2023-04-27T13:48:51.829Z,2.28
2023-04-27T13:51:22.088Z,2.85
2023-04-27T13:53:51.381Z,2.45
2023-04-27T13:56:20.097Z,2.47
2023-04-27T13:58:49.079Z,2.58
2023-04-27T14:01:17.859Z,2.53
2023-04-27T14:03:46.996Z,2.70
2023-04-27T14:06:16.770Z,2.10
2023-04-27T14:08:47.146Z,2.80
2023-04-27T14:11:16.291Z,2.30
2023-04-27T14:13:45.406Z,2.65
2023-04-27T14:16:14.120Z,2.63
2023-04-27T14:18:43.287Z,2.25
2023-04-27T14:21:11.957Z,1.92
2023-04-27T14:23:41.061Z,2.50
2023-04-27T14:26:11.253Z,2.60
2023-04-27T14:28:40.236Z,2.33
2023-04-27T14:31:08.989Z,2.70
2023-04-27T14:33:38.018Z,2.30
2023-04-27T14:36:08.604Z,2.33
2023-04-27T14:38:37.586Z,2.40
2023-04-27T14:41:08.447Z,2.05
2023-04-27T14:43:38.879Z,1.88
2023-04-27T14:46:19.723Z,2.05
2023-04-27T14:48:51.329Z,2.50
2023-04-27T14:51:20.365Z,2.60
2023-04-27T14:53:49.464Z,2.88
2023-04-27T14:56:18.207Z,2.50
2023-04-27T14:58:48.513Z,2.80
2023-04-27T15:01:17.364Z,2.50
2023-04-27T15:03:46.752Z,3.10
2023-04-27T15:06:15.524Z,2.90
2023-04-27T15:08:44.540Z,3.10
2023-04-27T15:11:13.400Z,2.95
2023-04-27T15:13:42.363Z,2.72
2023-04-27T15:16:12.408Z,3.55
2023-04-27T15:18:42.299Z,3.47
2023-04-27T15:21:11.031Z,3.78
2023-04-27T15:23:40.106Z,3.38
2023-04-27T15:26:08.825Z,4.85
2023-04-27T15:28:38.154Z,3.85
2023-04-27T15:31:06.908Z,3.67
2023-04-27T15:33:37.368Z,3.85
2023-04-27T15:36:06.955Z,5.55
2023-04-27T15:38:36.355Z,4.20
2023-04-27T15:41:05.197Z,3.92
2023-04-27T15:43:34.252Z,3.40
2023-04-27T15:46:05.475Z,3.67
2023-04-27T15:48:36.372Z,3.67
2023-04-27T15:51:09.577Z,4.40
2023-04-27T15:53:39.450Z,3.30
2023-04-27T15:56:08.679Z,3.95
2023-04-27T15:58:37.627Z,4.40
2023-04-27T16:01:06.778Z,3.05
2023-04-27T16:03:37.835Z,3.60
2023-04-27T16:06:07.779Z,3.70
2023-04-27T16:08:36.908Z,3.65
2023-04-27T16:11:06.710Z,3.88
2023-04-27T16:13:35.838Z,4.30
2023-04-27T16:16:04.928Z,3.78
2023-04-27T16:18:34.804Z,3.72
2023-04-27T16:21:05.077Z,4.05
2023-04-27T16:23:34.109Z,3.78
2023-04-27T16:26:02.756Z,4.15
2023-04-27T16:28:32.837Z,4.25
2023-04-27T16:31:01.687Z,3.72
2023-04-27T16:33:31.392Z,4.10
2023-04-27T16:36:00.186Z,4.07
2023-04-27T16:38:30.467Z,4.90
2023-04-27T16:40:59.589Z,4.18
2023-04-27T16:43:29.976Z,4.03
2023-04-27T16:45:58.756Z,4.07
2023-04-27T16:48:27.938Z,3.78
2023-04-27T16:50:56.746Z,4.50
2023-04-27T16:53:27.084Z,4.50
2023-04-27T16:56:01.964Z,4.40
2023-04-27T16:58:32.889Z,4.10
2023-04-27T17:01:01.740Z,4.45
2023-04-27T17:03:31.062Z,6.93
2023-04-27T17:05:59.974Z,9.40
2023-04-27T17:08:29.174Z,7.20
2023-04-27T17:10:59.201Z,7.38
2023-04-27T17:13:28.095Z,10.80
2023-04-27T17:15:56.858Z,8.63
2023-04-27T17:18:25.967Z,7.30
2023-04-27T17:20:54.690Z,5.63
2023-04-27T17:23:24.693Z,6.50
2023-04-27T17:25:53.352Z,5.15
2023-04-27T17:28:23.761Z,5.75
2023-04-27T17:30:52.754Z,6.28
2023-04-27T17:33:21.778Z,6.40
2023-04-27T17:35:50.481Z,6.00
2023-04-27T17:38:19.550Z,5.38
2023-04-27T17:40:48.206Z,5.22
2023-04-27T17:43:17.289Z,5.82
2023-04-27T17:45:47.372Z,5.88
2023-04-27T17:48:17.012Z,5.55
2023-04-27T17:50:46.063Z,6.18
2023-04-27T17:53:15.399Z,6.05
2023-04-27T17:55:47.645Z,5.80
2023-04-27T17:58:17.208Z,6.32
2023-04-27T18:00:47.420Z,6.40
2023-04-27T18:03:17.074Z,6.55
2023-04-27T18:05:46.101Z,7.32
2023-04-27T18:08:15.163Z,8.35
2023-04-27T18:10:43.776Z,8.63
2023-04-27T18:13:13.047Z,8.93
2023-04-27T18:15:41.786Z,9.27
2023-04-27T18:18:16.789Z,8.05
2023-04-27T18:20:47.745Z,7.70
2023-04-27T18:23:16.907Z,7.13
2023-04-27T18:25:45.604Z,7.03
2023-04-27T18:28:14.990Z,7.05
2023-04-27T18:30:43.833Z,6.38
2023-04-27T18:33:14.354Z,6.53
2023-04-27T18:35:43.292Z,6.75
2023-04-27T18:38:12.530Z,7.13
2023-04-27T18:40:41.959Z,7.55
2023-04-27T18:43:11.461Z,8.35
2023-04-27T18:45:40.272Z,8.82
2023-04-27T18:48:10.056Z,9.55
2023-04-27T18:50:40.354Z,10.30
2023-04-27T18:53:09.409Z,11.85
2023-04-27T18:55:39.487Z,12.55
2023-04-27T18:58:08.482Z,12.18
2023-04-27T19:00:38.916Z,11.90
2023-04-27T19:03:08.116Z,11.82
2023-04-27T19:05:37.542Z,11.07
2023-04-27T19:08:08.133Z,10.45
2023-04-27T19:10:37.367Z,10.98
2023-04-27T19:13:06.388Z,10.95
2023-04-27T19:15:35.216Z,10.23
2023-04-27T19:18:10.530Z,10.88
2023-04-27T19:20:40.263Z,11.82
2023-04-27T19:23:12.641Z,11.20
2023-04-27T19:25:41.433Z,10.98
2023-04-27T19:28:10.461Z,11.38
2023-04-27T19:30:39.419Z,11.80
2023-04-27T19:33:08.456Z,12.38
2023-04-27T19:35:37.192Z,10.77
2023-04-27T19:38:06.653Z,11.23
2023-04-27T19:40:37.180Z,11.05
2023-04-27T19:43:07.126Z,10.98
2023-04-27T19:45:38.249Z,11.15
2023-04-27T19:48:07.882Z,10.25
2023-04-27T19:50:38.506Z,10.25
2023-04-27T19:53:07.426Z,11.00
2023-04-27T19:55:38.144Z,11.13
2023-04-27T19:58:07.394Z,11.57
2023-04-27T20:00:36.327Z,11.90
2023-04-27T20:03:06.505Z,12.35
2023-04-27T20:05:37.528Z,12.77
2023-04-27T20:08:06.943Z,13.50
2023-04-27T20:10:36.969Z,13.60
2023-04-27T20:13:06.108Z,15.75
2023-04-27T20:15:35.528Z,17.25
2023-04-27T20:18:04.913Z,15.02
2023-04-27T20:20:33.680Z,17.33
2023-04-27T20:23:02.693Z,19.27
2023-04-27T20:25:31.579Z,20.63
2023-04-27T20:28:01.903Z,19.67
2023-04-27T20:30:30.989Z,21.17
2023-04-27T20:33:01.489Z,21.08
2023-04-27T20:35:30.239Z,23.40
2023-04-27T20:38:00.225Z,24.85
2023-04-27T20:40:29.493Z,23.30
2023-04-27T20:42:58.580Z,22.63
2023-04-27T20:45:28.927Z,21.83
2023-04-27T20:47:58.405Z,21.63
2023-04-27T20:50:27.370Z,20.77
2023-04-27T20:52:56.452Z,19.95
2023-04-27T20:55:25.365Z,20.42
2023-04-27T20:57:54.278Z,19.77
2023-04-27T21:00:23.141Z,19.25
2023-04-27T21:02:53.798Z,18.25
2023-04-27T21:05:22.792Z,18.02
2023-04-27T21:07:51.702Z,18.27
2023-04-27T21:10:20.391Z,16.65
2023-04-27T21:12:49.381Z,17.25
2023-04-27T21:15:18.016Z,16.70
2023-04-27T21:17:47.115Z,17.33
2023-04-27T21:20:17.212Z,17.42
2023-04-27T21:22:46.372Z,17.42
2023-04-27T21:25:15.047Z,16.52
2023-04-27T21:27:44.032Z,17.83
2023-04-27T21:30:13.560Z,18.15
2023-04-27T21:32:42.473Z,18.30
2023-04-27T21:35:11.476Z,18.08
2023-04-27T21:37:41.830Z,18.15
2023-04-27T21:40:11.925Z,17.77
2023-04-27T21:42:40.950Z,19.48
2023-04-27T21:45:11.086Z,18.17
2023-04-27T21:47:40.139Z,18.25
2023-04-27T21:50:10.085Z,18.30
2023-04-27T21:52:39.246Z,17.40
2023-04-27T21:55:10.046Z,18.33
2023-04-27T21:57:38.940Z,18.58
2023-04-27T22:00:13.875Z,17.42
2023-04-27T22:02:49.656Z,19.85
2023-04-27T22:05:20.988Z,17.38
2023-04-27T22:07:49.901Z,17.77
2023-04-27T22:10:20.041Z,17.33
2023-04-27T22:12:49.106Z,18.20
2023-04-27T22:15:19.803Z,17.55
2023-04-27T22:17:49.852Z,16.65
2023-04-27T22:20:19.040Z,17.95
2023-04-27T22:22:48.199Z,16.88
2023-04-27T22:25:17.148Z,16.83
2023-04-27T22:27:47.441Z,16.65
2023-04-27T22:30:16.519Z,16.17
2023-04-27T22:32:45.763Z,16.02
2023-04-27T22:35:25.597Z,15.93
2023-04-27T22:37:56.194Z,15.63
2023-04-27T22:40:25.515Z,15.20
2023-04-27T22:42:56.579Z,16.65
2023-04-27T22:45:25.318Z,15.88
2023-04-27T22:47:54.635Z,16.38
2023-04-27T22:50:23.298Z,15.55
2023-04-27T22:52:53.041Z,15.00
2023-04-27T22:55:22.276Z,15.13
2023-04-27T22:57:53.757Z,15.48
2023-04-27T23:00:24.142Z,15.60
2023-04-27T23:02:53.197Z,15.38
2023-04-27T23:05:22.184Z,15.25
2023-04-27T23:07:52.086Z,15.15
2023-04-27T23:10:20.775Z,14.15
2023-04-27T23:12:50.759Z,13.90
2023-04-27T23:15:19.665Z,14.18
2023-04-27T23:17:50.020Z,15.35
2023-04-27T23:20:27.981Z,14.70
2023-04-27T23:22:58.299Z,14.85
2023-04-27T23:25:26.994Z,15.70
2023-04-27T23:27:56.062Z,14.25
2023-04-27T23:30:24.870Z,14.05
2023-04-27T23:32:55.214Z,16.08
2023-04-27T23:35:24.086Z,15.25
2023-04-27T23:37:53.104Z,13.05
2023-04-27T23:40:21.832Z,14.38
2023-04-27T23:42:51.804Z,14.60
2023-04-27T23:45:20.952Z,14.88
2023-04-27T23:47:50.074Z,15.10
2023-04-27T23:50:20.432Z,15.27
2023-04-27T23:52:49.688Z,14.80
2023-04-27T23:55:18.740Z,14.27
2023-04-27T23:57:47.925Z,15.45
